x

9449880 - Friday Harbor, Wa (frdw1) Weather Station

2:36 - Sat 24th Jun 2017 All times are PDT. -7 hours from GMT.

  • Wind
    2mph, 7mph gusts
  • Sea Temp 52°f
  • Air Temp 76°f
  • Sea Pressure 1019.7mb
  • 9449880 - Friday Harbor, Wa
  • 9449880 - Friday Harbor, Wa

More Historic Weather Station data

Upgrade to MSW Pro to gain access to the past 30 days of data for over 8000 Wavebouys and Weather Stations around the globe.

Join Pro

Comparision Forecast

View Surf forecast
   
sam. 06/24 2:36 2 7 mph 1019.7mb 52f 76f
2:30 1 3 mph 1019.7mb 52f 75f
2:24 2 9 mph 1019.7mb 53f 75f
2:18 2 9 mph 1019.8mb 53f 75f
2:12 1 8 mph 1019.8mb 53f 75f
2:06 3 8 mph 1019.9mb 53f 75f
2:00 3 8 mph 1020mb 53f 74f
1:36 3 8 mph 1020.2mb 53f 74f
1:30 5 11 mph 1020.3mb 53f 74f
1:24 5 11 mph 1020.4mb 53f 74f
1:18 2 6 mph 1020.5mb 53f 74f
1:12 3 8 mph 1020.5mb 53f 73f
1:06 6 9 mph 1020.6mb 53f 73f
1:00 5 9 mph 1020.7mb 53f 73f
12:36 3 8 mph 1021mb 53f 72f
12:30 5 8 mph 1021mb 53f 73f
12:24 2 8 mph 1021.1mb 53f 73f
12:18 6 11 mph 1021.1mb 53f 72f
12:12 2 8 mph 1021.2mb 53f 73f
12:06 5 9 mph 1021.2mb 53f 73f
12:00 3 7 mph 1021.2mb 53f 72f
11:36 3 8 mph 1021.2mb 52f 72f
11:30 5 10 mph 1021.2mb 52f 71f
11:24 3 8 mph 1021.2mb 53f 73f
11:18 2 8 mph 1021.2mb 52f 72f
11:12 5 10 mph 1021.2mb 52f 72f
11:06 3 6 mph 1021.3mb 53f 72f
11:00 2 7 mph 1021.3mb 53f 71f
10:36 5 9 mph 1021.5mb 53f 69f
10:30 3 10 mph 1021.6mb 53f 70f
10:24 3 7 mph 1021.6mb 53f 69f
10:18 2 6 mph 1021.7mb 53f 69f
10:12 1 6 mph 1021.8mb 53f 70f
10:06 2 6 mph 1021.8mb 53f 69f
10:00 1 5 mph 1021.8mb 53f 69f
9:36 7 10 mph 1021.8mb 52f 67f
9:30 3 8 mph 1021.9mb 52f 67f
9:24 5 7 mph 1021.9mb 52f 67f
9:18 5 8 mph 1021.9mb 52f 68f
9:12 2 5 mph 1022mb 52f 68f
9:06 5 9 mph 1021.9mb 52f 68f
9:00 6 11 mph 1021.8mb 52f 68f
8:36 7 10 mph 1021.9mb 52f 68f
8:30 7 11 mph 1021.9mb 52f 68f
8:24 7 9 mph 1021.8mb 52f 67f
8:18 6 11 mph 1021.8mb 52f 67f
8:12 7 10 mph 1021.8mb 52f 67f
8:06 5 8 mph 1021.8mb 52f 67f
8:00 5 9 mph 1021.8mb 52f 67f
7:36 5 8 mph 1021.9mb 52f 67f
7:30 3 7 mph 1021.8mb 52f 67f
7:24 1 3 mph 1021.8mb 52f 65f
7:18 2 5 mph 1021.8mb 52f 64f
7:12 2 5 mph 1021.7mb 52f 62f
7:06 1 3 mph 1021.7mb 52f 64f
7:00 2 3 mph 1021.6mb 52f 64f
6:36 2 5 mph 1021.5mb 52f 62f
6:30  -  3 mph 1021.5mb 52f 61f
6:24 3 6 mph 1021.5mb 52f 60f
6:18 5 6 mph 1021.4mb 52f 59f
6:12 2 5 mph 1021.5mb 52f 60f
6:06 3 5 mph 1021.5mb 52f 58f
6:00 2 5 mph 1021.5mb 52f 57f
5:36 3 5 mph 1021.4mb 52f 55f
5:30 3 5 mph 1021.4mb 52f 54f
5:24 2 5 mph 1021.4mb 52f 54f
5:18 2 5 mph 1021.4mb 52f 53f
5:12 3 5 mph 1021.4mb 52f 53f
5:06 2 5 mph 1021.3mb 52f 53f
5:00  -  2 mph 1021.2mb 52f 53f
4:36 1 2 mph 1021.3mb 52f 53f
4:30  -  2 mph 1021.3mb 52f 54f
4:24 1 1 mph 1021.3mb 52f 55f
4:18  -  1 mph 1021.3mb 52f 55f
4:12  -  1 mph 1021.4mb 52f 55f
4:06 1 1 mph 1021.5mb 52f 54f
4:00  -  1 mph 1021.5mb 52f 53f
3:36  -  2 mph 1021.4mb 52f 53f
3:30 1 2 mph 1021.4mb 52f 53f
3:24 2 2 mph 1021.4mb 52f 51f
3:18 2 2 mph 1021.3mb 52f 52f
3:12  -  2 mph 1021.3mb 53f 54f
3:06  -  0 mph 1021.3mb 53f 54f
3:00  -  1 mph 1021.2mb 53f 55f
2:36 1 2 mph 1021.2mb 53f 52f
2:30 2 2 mph 1021.2mb 53f 53f
2:24  -  1 mph 1021.2mb 53f 54f
2:18  -  1 mph 1021.2mb 53f 54f
2:12 1 2 mph 1021.3mb 53f 53f
2:06  -  1 mph 1021.3mb 53f 53f
2:00 1 3 mph 1021.3mb 53f 53f
1:36 1 2 mph 1021.3mb 53f 55f
1:30 1 2 mph 1021.4mb 53f 55f
1:24 1 2 mph 1021.4mb 53f 54f
1:18 1 2 mph 1021.4mb 53f 54f
1:12 2 2 mph 1021.4mb 53f 55f
1:06  -  1 mph 1021.3mb 53f 55f
1:00 2 3 mph 1021.3mb 53f 55f
12:36 1 3 mph 1021.4mb 53f 55f
12:30 1 2 mph 1021.4mb 53f 56f
12:24 1 2 mph 1021.3mb 53f 56f
12:18  -  1 mph 1021.3mb 53f 57f
12:12  -  1 mph 1021.3mb 53f 57f
12:06 1 3 mph 1021.4mb 52f 57f
12:00 3 3 mph 1021.4mb 52f 57f
ven. 06/23 11:36  -  3 mph 1021.3mb 52f 59f
11:30 1 2 mph 1021.3mb 52f 60f
11:24  -  0 mph 1021.4mb 52f 58f
11:18  -  1 mph 1021.3mb 52f 58f
11:12  -  1 mph 1021.3mb 52f 58f
11:06  -  1 mph 1021.3mb 53f 58f
11:00  -  1 mph 1021.3mb 53f 58f
10:36 1 2 mph 1021.2mb 53f 58f
10:30  -  2 mph 1021.2mb 53f 59f
10:24 1 3 mph 1021.2mb 53f 59f
10:18  -  1 mph 1021.2mb 53f 60f
10:12  -  0 mph 1021.2mb 53f 60f
10:06  -  1 mph 1021.3mb 53f 60f
10:00  -  1 mph 1021.3mb 53f 61f
9:36  -  1 mph 1021.2mb 53f 64f
9:30 1 2 mph 1021.1mb 53f 62f
9:24  -  1 mph 1021.1mb 53f 64f
9:18  -  3 mph 1021mb 53f 65f
9:12 1 3 mph 1021mb 53f 66f
9:06  -  0 mph 1021mb 53f 66f
9:00  -  0 mph 1021mb 53f 66f
8:36 2 2 mph 1020.9mb 52f 68f
8:30 2 3 mph 1020.9mb 52f 67f
8:24 3 5 mph 1020.9mb 52f 66f
8:18  -  2 mph 1020.9mb 52f 71f
8:12 1 5 mph 1020.9mb 53f 70f
8:06  -  1 mph 1020.9mb 53f 71f
8:00  -  2 mph 1021mb 53f 71f
7:36  -  1 mph 1021.2mb 53f 72f
7:30  -  2 mph 1021.3mb 53f 72f
7:24  -  1 mph 1021.3mb 53f 73f
7:18  -  5 mph 1021.3mb 52f 73f
7:12 1 3 mph 1021.3mb 52f 74f
7:06 1 3 mph 1021.3mb 52f 74f
7:00 1 2 mph 1021.3mb 52f 74f
6:36 3 6 mph 1021.4mb 53f 74f
6:30 5 6 mph 1021.3mb 52f 74f
6:24 2 5 mph 1021.4mb 52f 74f
6:18 2 7 mph 1021.5mb 52f 74f
6:12 2 5 mph 1021.5mb 51f 74f
6:06 2 6 mph 1021.5mb 51f 74f
6:00 3 6 mph 1021.5mb 51f 74f
5:36 5 7 mph 1021.8mb 51f 74f
5:30 5 7 mph 1021.9mb 51f 74f
5:24 6 8 mph 1021.9mb 51f 73f
5:18 5 8 mph 1021.9mb 51f 74f
5:12 5 7 mph 1022mb 51f 73f
5:06 6 8 mph 1022.1mb 51f 73f
5:00 5 9 mph 1022.1mb 51f 73f
4:36 6 9 mph 1022.4mb 51f 72f
4:30 6 8 mph 1022.4mb 51f 72f
4:24 7 10 mph 1022.5mb 51f 72f
4:18 6 9 mph 1022.5mb 51f 72f
4:12 6 9 mph 1022.5mb 51f 72f
4:06 6 10 mph 1022.5mb 51f 72f
4:00 5 9 mph 1022.5mb 51f 72f
3:36 3 7 mph 1022.8mb 52f 71f
3:30 5 9 mph 1022.8mb 52f 71f
3:24 3 6 mph 1022.8mb 52f 71f
3:18 3 7 mph 1022.8mb 52f 71f
3:12 3 6 mph 1022.9mb 52f 70f
3:06 2 6 mph 1022.9mb 52f 70f
3:00 5 9 mph 1022.9mb 52f 70f
2:54 5 8 mph 1023mb 53f 70f
2:48 5 8 mph 1023.1mb 53f 70f
2:36 3 10 mph 1023.1mb 52f 69f
2:30 2 8 mph 1023.2mb 52f 69f
2:24 5 8 mph 1023.3mb 52f 69f
2:18 5 10 mph 1023.3mb 52f 69f
2:12 6 9 mph 1023.3mb 52f 69f
2:06 6 10 mph 1023.4mb 53f 69f
2:00 6 9 mph 1023.5mb 54f 68f
1:54 6 8 mph 1023.6mb 54f 68f
1:48 3 7 mph 1023.6mb 54f 68f
1:36 2 7 mph 1023.6mb 54f 67f
1:30 6 8 mph 1023.7mb 54f 67f
1:24 3 6 mph 1023.7mb 54f 68f
1:18 3 9 mph 1023.7mb 54f 68f
1:12 5 7 mph 1023.7mb 53f 67f
1:06 3 7 mph 1023.7mb 53f 68f
1:00 2 7 mph 1023.6mb 53f 69f
12:54 3 9 mph 1023.6mb 53f 67f
12:48 2 7 mph 1023.6mb 53f 67f
12:36 5 8 mph 1023.7mb 53f 67f
12:30 2 6 mph 1023.7mb 53f 67f
12:24 3 7 mph 1023.7mb 53f 67f
12:18 3 8 mph 1023.7mb 53f 66f
12:12 3 8 mph 1023.8mb 53f 66f
12:06 3 9 mph 1023.9mb 53f 66f
12:00 3 9 mph 1023.9mb 53f 65f
11:54 3 10 mph 1024mb 53f 66f
11:36 7 9 mph 1024mb 53f 65f
11:30 5 8 mph 1024.1mb 53f 65f
11:24 5 9 mph 1024.1mb 53f 65f
11:18 5 11 mph 1024.1mb 53f 65f
11:12 3 8 mph 1024.1mb 53f 64f
11:06 2 8 mph 1024.2mb 53f 64f
11:00 3 7 mph 1024.3mb 53f 64f
10:54 3 7 mph 1024.3mb 52f 65f
10:48 3 8 mph 1024.2mb 53f 64f
10:36 2 9 mph 1024.2mb 52f 64f
10:30 5 9 mph 1024.2mb 52f 64f
10:24 6 8 mph 1024.2mb 52f 63f
10:18 2 7 mph 1024.3mb 52f 63f
10:12 5 8 mph 1024.2mb 52f 63f
10:06 5 11 mph 1024.3mb 53f 63f
10:00 5 9 mph 1024.4mb 53f 63f
9:54 6 11 mph 1024.4mb 53f 63f
9:48 5 9 mph 1024.4mb 53f 62f
9:36 6 11 mph 1024.5mb 53f 62f
9:30 6 10 mph 1024.5mb 53f 62f
9:24 6 10 mph 1024.6mb 53f 62f
9:18 3 7 mph 1024.7mb 53f 62f
9:12 6 9 mph 1024.7mb 53f 62f
9:06 6 10 mph 1024.7mb 53f 62f
9:00 5 11 mph 1024.7mb 53f 61f
8:54 5 10 mph 1024.7mb 53f 61f
8:48 7 10 mph 1024.7mb 53f 61f
8:36 5 9 mph 1024.8mb 53f 61f
8:30 7 10 mph 1024.7mb 53f 61f
8:24 7 10 mph 1024.6mb 53f 60f
8:18 8 14 mph 1024.6mb 53f 60f
8:12 8 14 mph 1024.6mb 53f 60f
8:06 8 11 mph 1024.6mb 53f 60f
8:00 7 13 mph 1024.5mb 53f 61f
7:54 7 11 mph 1024.5mb 53f 60f
7:48 7 9 mph 1024.5mb 53f 60f
7:36 6 9 mph 1024.4mb 53f 60f
7:30 3 9 mph 1024.4mb 53f 59f
7:24 2 5 mph 1024.4mb 53f 57f
7:18 2 5 mph 1024.4mb 53f 55f
7:12 3 5 mph 1024.5mb 52f 53f
7:06 2 3 mph 1024.5mb 52f 53f
7:00  -  2 mph 1024.6mb 52f 54f
6:54  -  2 mph 1024.6mb 52f 54f
6:48 2 5 mph 1024.5mb 52f 54f
6:36 3 5 mph 1024.6mb 52f 53f
6:30 3 3 mph 1024.5mb 52f 53f
6:24 1 2 mph 1024.6mb 52f 54f
6:18  -  1 mph 1024.6mb 52f 54f
6:12 1 2 mph 1024.5mb 52f 51f
6:06 1 2 mph 1024.4mb 52f 52f
6:00  -  1 mph 1024.4mb 52f 53f
5:54  -  1 mph 1024.4mb 52f 51f
5:48  -  2 mph 1024.4mb 52f 49f
5:36  -  2 mph 1024.5mb 52f 48f
5:30 2 3 mph 1024.5mb 52f 48f
5:24 2 2 mph 1024.4mb 52f 48f
5:18  -  1 mph 1024.3mb 52f 49f
5:12 1 2 mph 1024.3mb 52f 49f
5:06 1 3 mph 1024.3mb 52f 48f
5:00 2 3 mph 1024.3mb 52f 48f
4:54 2 3 mph 1024.2mb 52f 48f
4:48 2 3 mph 1024.1mb 52f 49f
4:36 1 3 mph 1024mb 52f 48f
4:30 2 2 mph 1023.9mb 52f 48f
4:24 1 5 mph 1024mb 52f 48f
4:18 2 3 mph 1024mb 52f 49f
4:12 1 2 mph 1023.9mb 52f 49f
4:06  -  1 mph 1024mb 52f 49f
4:00  -  1 mph 1023.9mb 52f 49f
3:54  -  2 mph 1024.1mb 52f 49f
3:48 1 2 mph 1024mb 52f 49f
3:36 2 2 mph 1024.1mb 52f 49f
3:30 2 2 mph 1024.1mb 52f 49f
3:24 2 3 mph 1024.1mb 52f 49f
3:18 1 2 mph 1024mb 52f 49f
3:12 1 2 mph 1024.1mb 52f 49f
3:06 1 2 mph 1024.1mb 52f 49f
3:00  -  1 mph 1024.1mb 52f 49f
2:54  -  3 mph 1024.1mb 52f 49f
2:48 2 3 mph 1024.1mb 52f 49f
2:36  -  2 mph 1024.1mb 53f 51f
2:30  -  1 mph 1024mb 53f 51f
2:24 1 1 mph 1024mb 53f 51f
2:18 1 1 mph 1024mb 53f 50f
2:12 1 2 mph 1024mb 53f 49f
2:06 1 2 mph 1024.1mb 53f 50f
2:00 2 5 mph 1024mb 53f 50f
1:54 3 5 mph 1024mb 53f 50f
1:48 5 5 mph 1023.9mb 53f 50f
1:36 1 2 mph 1024mb 53f 51f
1:30 1 2 mph 1024.1mb 53f 51f
1:24 1 2 mph 1024.1mb 53f 51f
1:18  -  2 mph 1024.1mb 53f 51f
1:12 2 2 mph 1024.1mb 53f 51f
1:06 1 2 mph 1024mb 53f 51f
1:00 1 3 mph 1024.1mb 53f 51f
12:54 3 5 mph 1024.1mb 53f 51f
12:48 2 5 mph 1024.1mb 53f 51f
12:36 2 3 mph 1024.2mb 53f 53f
12:30  -  1 mph 1024.1mb 53f 53f
12:24  -  2 mph 1024.2mb 53f 52f
12:18  -  2 mph 1024.2mb 53f 52f
12:12  -  0 mph 1024.1mb 53f 52f
12:06  -  2 mph 1024.1mb 53f 52f
12:00 1 3 mph 1024.1mb 53f 52f
jeu. 06/22 11:54 2 2 mph 1024.1mb 53f 53f
11:48  -  1 mph 1024.1mb 53f 53f
11:36  -  0 mph 1024.2mb 53f 53f
11:30  -  0 mph 1024.1mb 53f 53f
11:24  -  0 mph 1024.1mb 53f 54f
11:18  -  1 mph 1024.1mb 53f 54f
11:12  -  0 mph 1024.1mb 53f 54f
11:06  -  1 mph 1024.1mb 53f 55f
11:00  -  1 mph 1024.2mb 53f 55f
10:54  -  0 mph 1024.3mb 53f 54f
10:48  -  1 mph 1024.3mb 53f 55f
10:36 2 2 mph 1024.3mb 53f 55f
10:30  -  2 mph 1024.3mb 53f 55f
10:24  -  1 mph 1024.2mb 53f 55f
10:18  -  3 mph 1024.2mb 53f 55f
10:12 2 3 mph 1024.1mb 53f 56f
10:06 1 2 mph 1024.1mb 53f 56f
10:00  -  1 mph 1024.1mb 53f 57f
9:54  -  3 mph 1024.1mb 53f 58f
9:48 2 3 mph 1024.1mb 53f 58f
9:36 1 2 mph 1024mb 53f 58f
9:30 1 2 mph 1024mb 53f 58f
9:24  -  2 mph 1024mb 53f 59f
9:18  -  1 mph 1024mb 53f 59f
9:12 2 3 mph 1024mb 53f 59f
9:06  -  2 mph 1023.9mb 53f 61f
9:00  -  1 mph 1023.9mb 53f 61f
8:54  -  1 mph 1023.9mb 53f 62f
8:48 1 3 mph 1023.9mb 53f 63f
8:36 2 2 mph 1023.9mb 53f 62f
8:30 1 2 mph 1023.9mb 53f 63f
8:24  -  2 mph 1023.9mb 53f 62f
8:18  -  1 mph 1023.9mb 53f 62f
8:12  -  1 mph 1023.9mb 53f 62f
8:06  -  1 mph 1024mb 53f 62f
8:00  -  1 mph 1024mb 53f 65f
7:54  -  1 mph 1023.9mb 53f 65f
7:48  -  2 mph 1023.9mb 53f 65f
7:36  -  3 mph 1024mb 53f 65f
7:30  -  1 mph 1024mb 53f 65f
7:24 1 2 mph 1024.1mb 53f 66f
7:18  -  2 mph 1024.1mb 53f 65f
7:12 1 5 mph 1024mb 53f 65f
7:06 1 6 mph 1024.1mb 53f 65f
7:00 2 6 mph 1024mb 53f 65f
6:54 3 5 mph 1024.1mb 53f 65f
6:48 2 3 mph 1024.2mb 53f 65f
6:36  -  6 mph 1024.2mb 53f 67f
6:30 2 6 mph 1024.2mb 53f 66f
6:24 2 5 mph 1024.2mb 53f 66f
6:18 1 3 mph 1024.2mb 53f 66f
6:12 2 6 mph 1024.2mb 53f 67f
6:06 2 5 mph 1024.2mb 53f 66f
6:00 2 6 mph 1024.3mb 53f 66f
5:54 3 6 mph 1024.3mb 53f 66f
5:48 2 6 mph 1024.3mb 52f 66f
5:36 2 7 mph 1024.4mb 52f 67f
5:30 3 6 mph 1024.4mb 52f 67f
5:24 3 6 mph 1024.5mb 53f 66f
5:18 3 7 mph 1024.6mb 53f 66f
5:12 3 5 mph 1024.6mb 53f 67f
5:06 3 6 mph 1024.7mb 52f 66f
5:00 3 6 mph 1024.8mb 52f 66f
4:54 2 9 mph 1024.8mb 51f 66f
4:48 5 8 mph 1024.9mb 51f 66f
4:36 2 8 mph 1025mb 51f 66f
4:30 3 8 mph 1025mb 51f 65f
4:24 3 7 mph 1025.1mb 51f 66f
4:18 3 8 mph 1025.2mb 51f 66f
4:12 3 8 mph 1025.2mb 51f 65f
4:06 3 7 mph 1025.3mb 51f 65f
4:00 3 9 mph 1025.4mb 51f 66f
3:54 3 13 mph 1025.3mb 51f 66f
3:48 6 10 mph 1025.3mb 51f 66f
3:36 3 6 mph 1025.3mb 51f 65f
3:30 3 9 mph 1025.3mb 51f 65f
3:24 5 9 mph 1025.4mb 51f 65f
3:18 6 9 mph 1025.4mb 51f 65f
3:12 6 9 mph 1025.6mb 51f 64f
3:06 6 9 mph 1025.7mb 51f 64f
3:00 7 11 mph 1025.7mb 51f 64f
2:54 5 10 mph 1025.8mb 51f 64f
2:48 5 9 mph 1025.9mb 52f 64f
2:36 7 9 mph 1025.9mb 52f 63f
2:30 6 10 mph 1025.9mb 52f 63f
2:24 7 10 mph 1025.9mb 51f 63f
2:18 7 11 mph 1026mb 51f 63f
2:12 5 9 mph 1026.1mb 51f 63f
2:06 6 9 mph 1026.1mb 51f 63f
2:00 3 8 mph 1026.1mb 51f 64f
1:54 3 7 mph 1026mb 51f 63f
1:48 5 8 mph 1026mb 51f 63f
1:36 5 7 mph 1026.1mb 51f 62f
1:30 3 8 mph 1026.1mb 51f 63f
1:24 5 9 mph 1026.2mb 51f 62f
1:18 7 9 mph 1026.3mb 51f 62f
1:12 6 10 mph 1026.3mb 52f 62f
1:06 6 10 mph 1026.4mb 53f 61f
1:00 6 8 mph 1026.6mb 53f 62f
12:54 6 9 mph 1026.6mb 53f 61f
12:48 3 8 mph 1026.6mb 53f 61f
12:36 6 10 mph 1026.6mb 53f 61f
12:30 3 7 mph 1026.6mb 53f 61f
12:24 3 9 mph 1026.7mb 53f 61f
12:18 3 7 mph 1026.7mb 53f 61f
12:12 3 8 mph 1026.8mb 53f 60f
12:06 5 8 mph 1026.9mb 53f 60f
12:00 6 8 mph 1026.9mb 53f 60f
11:54 3 7 mph 1026.9mb 53f 60f
11:48 6 13 mph 1026.9mb 53f 60f
11:36 3 9 mph 1027mb 53f 60f
11:30 3 8 mph 1027.1mb 53f 59f
11:24 5 9 mph 1027.1mb 52f 59f
11:18 6 9 mph 1027.1mb 52f 59f
11:12 3 8 mph 1027.1mb 52f 59f
11:06 2 9 mph 1027.1mb 52f 59f
11:00 5 8 mph 1027.2mb 52f 59f
10:54 5 9 mph 1027.2mb 52f 59f
10:48 6 11 mph 1027.2mb 52f 58f
10:36 8 11 mph 1027.3mb 52f 57f
10:30 9 14 mph 1027.3mb 52f 57f
10:24 8 14 mph 1027.3mb 51f 57f
10:18 6 13 mph 1027.3mb 51f 57f
10:12 7 11 mph 1027.4mb 51f 57f
10:06 3 11 mph 1027.4mb 52f 58f
10:00 3 9 mph 1027.4mb 52f 58f
9:54 6 9 mph 1027.3mb 52f 59f
9:48 3 9 mph 1027.3mb 52f 59f
9:36 3 8 mph 1027.3mb 52f 59f
9:30 3 8 mph 1027.3mb 52f 58f
9:24 6 10 mph 1027.3mb 52f 58f
9:18 5 9 mph 1027.2mb 52f 58f
9:12 2 9 mph 1027.2mb 52f 58f
9:06 5 10 mph 1027.3mb 52f 58f
9:00 5 9 mph 1027.3mb 52f 58f
8:54 6 9 mph 1027.4mb 52f 58f
8:48 7 13 mph 1027.4mb 52f 57f
8:36 5 8 mph 1027.3mb 52f 57f
8:30 6 8 mph 1027.2mb 52f 57f
8:24 6 7 mph 1027.2mb 52f 56f
8:18 3 6 mph 1027.1mb 52f 55f
8:12 3 5 mph 1027.1mb 52f 55f
8:06 1 2 mph 1027.1mb 52f 56f
8:00 1 2 mph 1027.2mb 52f 55f
7:54 1 2 mph 1027.2mb 52f 56f
7:48 2 3 mph 1027.1mb 52f 55f
7:36 2 2 mph 1027.1mb 52f 54f
7:30  -  3 mph 1027mb 52f 54f
7:24 2 3 mph 1027mb 52f 53f
7:18 1 2 mph 1027mb 51f 54f
7:12 1 2 mph 1027mb 51f 53f
7:06  -  3 mph 1026.9mb 51f 52f
7:00 2 3 mph 1026.9mb 51f 52f
6:54 1 3 mph 1026.9mb 51f 53f
6:48 2 3 mph 1026.9mb 51f 51f
6:36 2 3 mph 1026.9mb 51f 49f
6:30 1 3 mph 1026.9mb 51f 49f
6:24 1 2 mph 1026.9mb 51f 50f
6:18 1 3 mph 1026.9mb 51f 49f
6:12  -  3 mph 1026.9mb 51f 48f
6:06 2 3 mph 1026.9mb 51f 47f
6:00 2 3 mph 1026.7mb 51f 48f
5:54 1 3 mph 1026.6mb 51f 47f
5:48 2 5 mph 1026.5mb 51f 47f
5:36 1 3 mph 1026.5mb 51f 47f
5:30 2 3 mph 1026.4mb 51f 47f
5:24 2 3 mph 1026.5mb 51f 47f
5:18 2 3 mph 1026.5mb 51f 47f
5:12 2 3 mph 1026.5mb 51f 47f
5:06 2 2 mph 1026.5mb 51f 48f
5:00 2 5 mph 1026.6mb 51f 47f
4:54 2 3 mph 1026.5mb 51f 47f
4:48 3 3 mph 1026.4mb 51f 47f
4:36 1 5 mph 1026.4mb 51f 48f
4:30 2 5 mph 1026.5mb 51f 48f
4:24 2 3 mph 1026.5mb 51f 48f
4:18 3 3 mph 1026.5mb 51f 48f
4:12 2 3 mph 1026.4mb 51f 49f
4:06  -  2 mph 1026.5mb 51f 49f
4:00  -  2 mph 1026.3mb 51f 49f
3:54  -  2 mph 1026.3mb 51f 49f
3:48 1 2 mph 1026.2mb 51f 49f
3:36  -  2 mph 1026.3mb 51f 49f
3:30  -  2 mph 1026.3mb 51f 48f
3:24 2 3 mph 1026.3mb 51f 48f
3:18 2 3 mph 1026.5mb 51f 48f
3:12 2 3 mph 1026.5mb 51f 49f
3:06  -  1 mph 1026.6mb 51f 49f
3:00  -  0 mph 1026.6mb 51f 49f
2:54  -  1 mph 1026.6mb 51f 49f
2:48  -  1 mph 1026.5mb 51f 49f
2:36  -  1 mph 1026.5mb 51f 49f
2:30  -  1 mph 1026.5mb 51f 49f
2:24  -  2 mph 1026.4mb 51f 49f
2:18 2 2 mph 1026.5mb 51f 49f
2:12 1 2 mph 1026.6mb 51f 48f
2:06  -  2 mph 1026.7mb 51f 49f
2:00 2 2 mph 1026.6mb 51f 49f
1:54  -  1 mph 1026.7mb 51f 49f
1:48  -  1 mph 1026.6mb 51f 50f
1:36 1 2 mph 1026.8mb 51f 50f
1:30 2 3 mph 1026.7mb 51f 51f
1:24 1 2 mph 1026.6mb 51f 50f
1:18  -  2 mph 1026.4mb 51f 51f
1:12 2 3 mph 1026.4mb 51f 51f
1:06 2 3 mph 1026.4mb 51f 51f
1:00 1 2 mph 1026.3mb 51f 51f
12:54 1 2 mph 1026.2mb 51f 50f
12:48  -  1 mph 1026.2mb 51f 50f
12:36  -  1 mph 1026mb 51f 50f
12:30  -  1 mph 1026.1mb 51f 50f
12:24  -  1 mph 1026.1mb 51f 50f
12:18  -  0 mph 1026mb 51f 50f
12:12  -  1 mph 1026mb 51f 51f
12:06  -  1 mph 1026mb 51f 51f
12:00  -  1 mph 1026mb 51f 51f
mer. 06/21 11:54  -  2 mph 1026mb 51f 51f
11:48 2 3 mph 1026mb 51f 52f
11:36 1 2 mph 1025.9mb 51f 52f
11:30 1 3 mph 1025.8mb 51f 52f
11:24 1 6 mph 1025.8mb 51f 52f
11:18 5 6 mph 1025.8mb 51f 52f
11:12 3 6 mph 1025.8mb 51f 52f
11:06 2 5 mph 1025.7mb 51f 53f
11:00 3 6 mph 1025.7mb 51f 53f
10:54 3 6 mph 1025.7mb 51f 53f
10:48 1 5 mph 1025.6mb 51f 53f
10:36 2 5 mph 1025.7mb 51f 53f
10:30 5 6 mph 1025.7mb 51f 54f
10:24 5 6 mph 1025.7mb 51f 54f
10:18 3 7 mph 1025.8mb 51f 54f
10:12 6 6 mph 1025.7mb 51f 54f
10:06 5 6 mph 1025.7mb 51f 54f
10:00 3 3 mph 1025.6mb 51f 53f
9:54 1 2 mph 1025.5mb 51f 54f
9:48  -  2 mph 1025.6mb 51f 54f
9:36  -  1 mph 1025.5mb 51f 54f
9:30 1 2 mph 1025.4mb 51f 54f
9:24 2 2 mph 1025.4mb 51f 55f
9:18 2 3 mph 1025.4mb 51f 55f
9:12 2 3 mph 1025.5mb 51f 56f
9:06  -  1 mph 1025.5mb 51f 56f
9:00 1 2 mph 1025.5mb 51f 56f
8:54 2 3 mph 1025.4mb 51f 60f
8:36 2 3 mph 1025.3mb 51f 60f
8:30 1 3 mph 1025.3mb 51f 60f
8:24 1 3 mph 1025.3mb 51f 60f
8:18 2 3 mph 1025.4mb 51f 60f
8:12 3 7 mph 1025.4mb 51f 61f
8:06 7 7 mph 1025.5mb 51f 61f
8:00 5 6 mph 1025.5mb 51f 60f
7:54 5 7 mph 1025.6mb 51f 61f
7:48 2 5 mph 1025.6mb 51f 61f
7:36 5 7 mph 1025.5mb 51f 61f
7:30 6 7 mph 1025.5mb 51f 61f
7:24 6 7 mph 1025.4mb 51f 61f
7:18 5 6 mph 1025.4mb 51f 61f
7:12 5 7 mph 1025.4mb 51f 61f
7:06 5 6 mph 1025.3mb 51f 61f
7:00 6 7 mph 1025.3mb 51f 62f
6:54 5 6 mph 1025.3mb 51f 61f
6:48 2 6 mph 1025.4mb 51f 61f
6:36 3 6 mph 1025.4mb 51f 62f
6:30 1 3 mph 1025.4mb 51f 62f
6:24 2 3 mph 1025.4mb 51f 61f
6:18 1 3 mph 1025.4mb 51f 61f
6:12 2 5 mph 1025.4mb 51f 61f
6:06 1 3 mph 1025.5mb 51f 61f
6:00 2 3 mph 1025.5mb 51f 61f
5:54 2 3 mph 1025.5mb 51f 61f
5:48 1 3 mph 1025.6mb 51f 61f
5:36 2 7 mph 1025.7mb 51f 62f
5:30 7 8 mph 1025.7mb 51f 62f
5:24 6 8 mph 1025.7mb 51f 61f
5:18 5 6 mph 1025.7mb 51f 61f
5:12 6 8 mph 1025.8mb 51f 62f
5:06 6 9 mph 1025.9mb 51f 61f
5:00 6 8 mph 1025.9mb 51f 61f
4:54 5 7 mph 1025.9mb 51f 61f
4:48 5 6 mph 1026mb 51f 61f
4:36 5 6 mph 1026mb 51f 61f
4:30 3 6 mph 1026mb 51f 61f
4:24 5 6 mph 1026mb 51f 60f
4:18 6 7 mph 1026mb 51f 60f
4:12 6 7 mph 1026mb 51f 59f
4:06 3 5 mph 1026.1mb 51f 60f
4:00 3 6 mph 1026.1mb 51f 60f
3:54 5 6 mph 1026.2mb 51f 60f
3:48 3 5 mph 1026.2mb 51f 60f
3:36 3 3 mph 1026.3mb 50f 60f
3:30 3 5 mph 1026.3mb 50f 60f
3:24 5 5 mph 1026.3mb 50f 60f
3:18 2 5 mph 1026.3mb 50f 61f
3:12 5 7 mph 1026.3mb 50f 60f
3:06 3 6 mph 1026.4mb 50f 61f
3:00 5 8 mph 1026.4mb 50f 60f
2:54 5 8 mph 1026.3mb 50f 60f
2:36 6 8 mph 1026.3mb 50f 60f
2:30 5 8 mph 1026.3mb 50f 60f
2:24 6 7 mph 1026.3mb 50f 60f
2:18 6 9 mph 1026.3mb 50f 60f
2:12 3 8 mph 1026.2mb 50f 60f
2:06 6 8 mph 1026.2mb 50f 60f
2:00 6 9 mph 1026.3mb 50f 60f
1:54 7 10 mph 1026.3mb 50f 60f
1:48 5 13 mph 1026.3mb 50f 60f
1:36 6 10 mph 1026.4mb 50f 60f
1:30 6 9 mph 1026.4mb 50f 60f
1:24 6 9 mph 1026.4mb 50f 60f
1:18 6 9 mph 1026.5mb 50f 59f
1:12 7 10 mph 1026.4mb 50f 59f
1:06 5 7 mph 1026.4mb 50f 58f
1:00 5 7 mph 1026.5mb 50f 57f
12:54 6 7 mph 1026.5mb 50f 58f
12:48 6 8 mph 1026.4mb 51f 58f
12:36 6 8 mph 1026.5mb 51f 58f
12:30 5 6 mph 1026.6mb 51f 57f
12:24 3 6 mph 1026.6mb 51f 57f
12:18 2 5 mph 1026.5mb 51f 58f
12:12 2 5 mph 1026.6mb 51f 58f
12:06 3 5 mph 1026.6mb 51f 57f
12:00 3 6 mph 1026.6mb 51f 55f
11:54 3 7 mph 1026.6mb 51f 57f
11:48 5 6 mph 1026.7mb 51f 55f
11:36 7 8 mph 1026.6mb 51f 56f
11:30 8 9 mph 1026.7mb 51f 56f
11:24 7 8 mph 1026.7mb 51f 56f
11:18 8 8 mph 1026.7mb 51f 56f
11:12 7 7 mph 1026.6mb 51f 56f
11:06 7 8 mph 1026.5mb 51f 56f
11:00 6 7 mph 1026.4mb 51f 56f
10:54 7 7 mph 1026.5mb 51f 55f
10:48 6 7 mph 1026.4mb 51f 55f
10:36 6 6 mph 1026.3mb 51f 55f
10:30 5 6 mph 1026.4mb 51f 56f
10:24 6 6 mph 1026.3mb 51f 55f
10:18 6 7 mph 1026.4mb 51f 55f
10:12 6 6 mph 1026.5mb 51f 54f
10:06 6 6 mph 1026.5mb 51f 55f
10:00 5 6 mph 1026.4mb 51f 54f
9:54 3 5 mph 1026.4mb 51f 54f
9:48 3 6 mph 1026.3mb 51f 54f
9:36 3 5 mph 1026.3mb 51f 54f
9:30 3 5 mph 1026.3mb 51f 54f
9:24 3 5 mph 1026.3mb 51f 54f
9:18 2 3 mph 1026.3mb 51f 54f
9:12 3 5 mph 1026.2mb 51f 54f
9:06 3 5 mph 1026.2mb 51f 54f
9:00 2 3 mph 1026mb 51f 54f
8:54 2 3 mph 1025.9mb 51f 53f
8:48 3 3 mph 1025.9mb 51f 53f
8:36 3 5 mph 1025.8mb 51f 52f
8:30 3 5 mph 1025.8mb 51f 53f
8:24 3 5 mph 1025.7mb 51f 52f
8:18 3 5 mph 1025.6mb 51f 52f
8:12 3 5 mph 1025.5mb 51f 52f
8:06 2 3 mph 1025.5mb 51f 52f
8:00 3 5 mph 1025.4mb 51f 52f
7:54 5 5 mph 1025.4mb 51f 52f
7:48 5 5 mph 1025.4mb 51f 51f
7:36 5 5 mph 1025.3mb 51f 52f
7:30 2 3 mph 1025.3mb 51f 53f
7:24 2 3 mph 1025.3mb 51f 52f
7:18 2 3 mph 1025.4mb 51f 53f
7:12 2 2 mph 1025.4mb 51f 54f
7:06  -  1 mph 1025.3mb 51f 56f
7:00  -  1 mph 1025.1mb 51f 55f
6:54  -  1 mph 1025.1mb 51f 55f
6:36  -  1 mph 1025mb 51f 54f
6:30  -  1 mph 1024.9mb 51f 54f
6:24  -  1 mph 1025mb 51f 53f
6:18  -  1 mph 1025mb 51f 54f
6:12  -  0 mph 1024.9mb 51f 55f
6:06  -  1 mph 1024.8mb 51f 52f
6:00  -  1 mph 1024.9mb 51f 52f
5:54  -  1 mph 1024.9mb 50f 51f
5:48  -  0 mph 1024.9mb 50f 51f
5:36  -  0 mph 1024.7mb 51f 50f
5:30  -  1 mph 1024.7mb 51f 50f
5:24  -  2 mph 1024.8mb 51f 50f
5:18 1 2 mph 1024.8mb 51f 50f
5:12  -  1 mph 1024.9mb 51f 50f
5:06  -  1 mph 1024.9mb 51f 50f
5:00  -  2 mph 1024.9mb 51f 50f
4:54  -  1 mph 1024.8mb 51f 50f
4:48  -  1 mph 1024.7mb 51f 50f
4:36  -  2 mph 1024.6mb 51f 50f
4:30 1 2 mph 1024.6mb 51f 50f
4:24  -  1 mph 1024.6mb 51f 50f
4:18  -  1 mph 1024.6mb 51f 50f
4:12  -  2 mph 1024.7mb 51f 50f
4:06  -  1 mph 1024.6mb 51f 50f
4:00  -  2 mph 1024.5mb 51f 50f
3:54  -  1 mph 1024.6mb 51f 50f
3:48  -  2 mph 1024.5mb 51f 50f
3:36 1 1 mph 1024.5mb 51f 50f
3:30  -  0 mph 1024.5mb 51f 50f
3:24  -  1 mph 1024.4mb 51f 50f
3:18  -  1 mph 1024.3mb 51f 50f
3:12  -  3 mph 1024.2mb 51f 50f
3:06  -  1 mph 1024.1mb 51f 50f
3:00  -  2 mph 1024mb 51f 51f
2:54  -  5 mph 1024mb 51f 51f
2:48 3 6 mph 1024mb 51f 51f
2:36 6 9 mph 1024mb 51f 51f
2:30 5 8 mph 1023.9mb 51f 51f
2:24 5 8 mph 1023.8mb 51f 51f
2:18 5 9 mph 1023.9mb 51f 51f
2:12 3 7 mph 1023.8mb 51f 51f
2:06 5 6 mph 1023.8mb 51f 51f
2:00 5 7 mph 1023.7mb 51f 51f
1:54 3 6 mph 1023.7mb 51f 51f
1:48 3 6 mph 1023.7mb 51f 51f
1:36 5 7 mph 1023.5mb 51f 52f
1:30 3 6 mph 1023.4mb 51f 51f
1:24 3 6 mph 1023.5mb 51f 52f
1:18 3 6 mph 1023.5mb 51f 52f
1:12 5 6 mph 1023.5mb 51f 52f
1:06 3 6 mph 1023.5mb 51f 52f
1:00 5 6 mph 1023.4mb 51f 52f
12:54 3 5 mph 1023.4mb 51f 52f
12:48 2 5 mph 1023.4mb 51f 52f
12:36 2 6 mph 1023.3mb 51f 52f
12:30 2 8 mph 1023.3mb 51f 52f
12:24 2 6 mph 1023.4mb 51f 52f
12:18 3 8 mph 1023.4mb 51f 52f
12:12 5 9 mph 1023.4mb 51f 52f
12:06 5 9 mph 1023.3mb 51f 52f
12:00 5 7 mph 1023.2mb 51f 53f
mar. 06/20 11:54 2 6 mph 1023mb 51f 52f
11:48 2 7 mph 1022.9mb 51f 53f
11:36 6 7 mph 1022.9mb 51f 53f
11:30 7 10 mph 1022.8mb 51f 53f
11:24 3 9 mph 1022.8mb 51f 53f
11:18 5 10 mph 1022.8mb 51f 53f
11:12 5 9 mph 1022.9mb 51f 53f
11:06 5 9 mph 1022.8mb 51f 53f
11:00 6 10 mph 1022.7mb 51f 53f
10:54 6 8 mph 1022.7mb 51f 53f